Flight Number: AVA4183 Duration: 4:00
Departure: Chengdu Shuangliu Intl (ZUUU) at 01:00 Distance: 1756.85 Nm
Arrival: Singapore Changi Airport (WSSS) at 05:00 Equipment: B747

Weather Information
Chengdu, China (ZUUU) 30-40N 104-01E 508M Apr 14, 2024 - 10:00 PM EDT / 2024.04.15 0200 UTC
Wind: from the NE (040 degrees) at 7 MPH (6 KT) (direction variable):0
Visibility: 3 mile(s):0 Temperature: 80 F (27 C) Dew Point: 62 F (17 C) Relative Humidity: 54% Pressure (altimeter): 29.80 in. Hg (1009 hPa)
ob: ZUUU 150200Z 04003MPS 010V070 6000 NSC 27/17 Q1009 NOSIG cycle: 2
Sunrise: 22:38 Sunset: 11:29 (UTC)

Singapore / Changi Airport, Singapore (WSSS) 01-22N 103-59E 16M Apr 14, 2024 - 10:00 PM EDT / 2024.04.15 0200 UTC
Wind: from the NE (040 degrees) at 9 MPH (8 KT):0
Visibility: greater than 7 mile(s):0
Sky conditions: mostly cloudy Weather: light rain Temperature: 82 F (28 C) Dew Point: 77 F (25 C) Relative Humidity: 83% Pressure (altimeter): 29.85 in. Hg (1011 hPa)
ob: WSSS 150200Z 04008KT 9999 -RA FEW016 SCT140 BKN160 28/25 Q1011 NOSIG cycle: 2
Sunrise: 23:01 Sunset: 11:05 (UTC)

TAF:2024/04/14 18:08 TAF WSSS 141700Z 1418/1600 04008KT 9999 FEW015 SCT020 TEMPO 1506/1509 3000 TSRA FEW012CB BKN015

This route has never been flown.

Route map